sensor_id;sensor_type;location;lat;lon;timestamp;P1;durP1;ratioP1;P2;durP2;ratioP2
5125;SDS011;63008;53.112;8.896;2023-09-08T00:01:51;7.00;;;5.80;;
5125;SDS011;63008;53.112;8.896;2023-09-08T00:03:52;9.33;;;5.60;;
5125;SDS011;63008;53.112;8.896;2023-09-08T00:05:53;7.43;;;5.80;;
5125;SDS011;63008;53.112;8.896;2023-09-08T00:07:54;6.80;;;5.47;;
5125;SDS011;63008;53.112;8.896;2023-09-08T00:09:55;7.40;;;5.93;;
5125;SDS011;63008;53.112;8.896;2023-09-08T00:11:56;6.33;;;5.83;;
5125;SDS011;63008;53.112;8.896;2023-09-08T00:13:57;8.90;;;6.07;;
5125;SDS011;63008;53.112;8.896;2023-09-08T00:15:58;6.13;;;5.20;;
5125;SDS011;63008;53.112;8.896;2023-09-08T00:17:59;15.87;;;5.30;;
5125;SDS011;63008;53.112;8.896;2023-09-08T00:20:00;9.33;;;5.83;;
5125;SDS011;63008;53.112;8.896;2023-09-08T00:22:01;6.60;;;5.87;;
5125;SDS011;63008;53.112;8.896;2023-09-08T00:24:03;13.73;;;6.20;;
5125;SDS011;63008;53.112;8.896;2023-09-08T00:26:05;6.20;;;5.70;;
5125;SDS011;63008;53.112;8.896;2023-09-08T00:28:07;6.30;;;5.70;;
5125;SDS011;63008;53.112;8.896;2023-09-08T00:30:08;7.40;;;5.97;;
5125;SDS011;63008;53.112;8.896;2023-09-08T00:32:09;8.03;;;6.47;;
5125;SDS011;63008;53.112;8.896;2023-09-08T00:34:10;6.00;;;5.50;;
5125;SDS011;63008;53.112;8.896;2023-09-08T00:36:11;6.20;;;5.70;;
5125;SDS011;63008;53.112;8.896;2023-09-08T00:38:12;6.97;;;6.27;;
5125;SDS011;63008;53.112;8.896;2023-09-08T00:40:13;6.80;;;6.00;;
5125;SDS011;63008;53.112;8.896;2023-09-08T00:42:14;8.90;;;6.63;;
5125;SDS011;63008;53.112;8.896;2023-09-08T00:44:15;6.40;;;5.40;;
5125;SDS011;63008;53.112;8.896;2023-09-08T00:46:16;14.73;;;6.57;;
5125;SDS011;63008;53.112;8.896;2023-09-08T00:48:17;6.73;;;6.10;;
5125;SDS011;63008;53.112;8.896;2023-09-08T00:50:18;6.80;;;6.20;;
5125;SDS011;63008;53.112;8.896;2023-09-08T00:52:19;7.77;;;6.07;;
5125;SDS011;63008;53.112;8.896;2023-09-08T00:54:21;6.17;;;5.30;;
5125;SDS011;63008;53.112;8.896;2023-09-08T00:56:22;6.50;;;6.00;;
5125;SDS011;63008;53.112;8.896;2023-09-08T00:58:23;6.47;;;5.87;;
5125;SDS011;63008;53.112;8.896;2023-09-08T01:00:25;5.43;;;4.93;;
5125;SDS011;63008;53.112;8.896;2023-09-08T01:02:26;5.73;;;5.20;;
5125;SDS011;63008;53.112;8.896;2023-09-08T01:04:28;6.57;;;5.80;;
5125;SDS011;63008;53.112;8.896;2023-09-08T01:06:29;8.40;;;6.20;;
5125;SDS011;63008;53.112;8.896;2023-09-08T01:08:33;7.23;;;6.47;;
5125;SDS011;63008;53.112;8.896;2023-09-08T01:10:35;7.23;;;5.50;;
5125;SDS011;63008;53.112;8.896;2023-09-08T01:12:37;6.67;;;6.03;;
5125;SDS011;63008;53.112;8.896;2023-09-08T01:14:38;8.87;;;6.67;;
5125;SDS011;63008;53.112;8.896;2023-09-08T01:16:39;8.83;;;5.93;;
5125;SDS011;63008;53.112;8.896;2023-09-08T01:18:43;7.73;;;6.13;;
5125;SDS011;63008;53.112;8.896;2023-09-08T01:20:48;7.07;;;6.10;;
5125;SDS011;63008;53.112;8.896;2023-09-08T01:23:21;6.13;;;5.50;;
5125;SDS011;63008;53.112;8.896;2023-09-08T01:25:29;7.83;;;6.20;;
5125;SDS011;63008;53.112;8.896;2023-09-08T01:27:32;6.50;;;5.97;;
5125;SDS011;63008;53.112;8.896;2023-09-08T01:29:35;6.83;;;5.90;;
5125;SDS011;63008;53.112;8.896;2023-09-08T01:31:40;6.17;;;5.67;;
5125;SDS011;63008;53.112;8.896;2023-09-08T01:33:41;5.97;;;5.10;;
5125;SDS011;63008;53.112;8.896;2023-09-08T01:35:43;7.00;;;6.40;;
5125;SDS011;63008;53.112;8.896;2023-09-08T01:37:45;7.07;;;6.07;;
5125;SDS011;63008;53.112;8.896;2023-09-08T01:39:47;7.80;;;6.07;;
5125;SDS011;63008;53.112;8.896;2023-09-08T01:41:48;7.13;;;6.40;;
5125;SDS011;63008;53.112;8.896;2023-09-08T01:43:49;9.23;;;5.57;;
5125;SDS011;63008;53.112;8.896;2023-09-08T01:45:49;6.00;;;5.47;;
5125;SDS011;63008;53.112;8.896;2023-09-08T01:47:50;8.10;;;6.17;;
5125;SDS011;63008;53.112;8.896;2023-09-08T01:49:51;6.30;;;5.70;;
5125;SDS011;63008;53.112;8.896;2023-09-08T01:51:52;6.47;;;5.83;;
5125;SDS011;63008;53.112;8.896;2023-09-08T01:53:53;7.10;;;6.40;;
5125;SDS011;63008;53.112;8.896;2023-09-08T01:55:54;7.30;;;6.40;;
5125;SDS011;63008;53.112;8.896;2023-09-08T01:57:55;5.90;;;5.40;;
5125;SDS011;63008;53.112;8.896;2023-09-08T01:59:56;7.40;;;6.53;;
5125;SDS011;63008;53.112;8.896;2023-09-08T02:01:57;9.60;;;6.07;;
5125;SDS011;63008;53.112;8.896;2023-09-08T02:03:58;6.00;;;5.40;;
5125;SDS011;63008;53.112;8.896;2023-09-08T02:05:59;7.13;;;6.00;;
5125;SDS011;63008;53.112;8.896;2023-09-08T02:08:00;14.73;;;6.43;;
5125;SDS011;63008;53.112;8.896;2023-09-08T02:10:01;7.50;;;6.03;;
5125;SDS011;63008;53.112;8.896;2023-09-08T02:12:02;7.20;;;6.00;;
5125;SDS011;63008;53.112;8.896;2023-09-08T02:14:04;6.63;;;5.93;;
5125;SDS011;63008;53.112;8.896;2023-09-08T02:16:05;6.13;;;5.57;;
5125;SDS011;63008;53.112;8.896;2023-09-08T02:18:06;6.70;;;6.10;;
5125;SDS011;63008;53.112;8.896;2023-09-08T02:20:07;6.57;;;5.97;;
5125;SDS011;63008;53.112;8.896;2023-09-08T02:22:09;6.30;;;5.70;;
5125;SDS011;63008;53.112;8.896;2023-09-08T02:24:10;8.40;;;6.40;;
5125;SDS011;63008;53.112;8.896;2023-09-08T02:26:11;7.20;;;6.50;;
5125;SDS011;63008;53.112;8.896;2023-09-08T02:28:11;6.57;;;5.97;;
5125;SDS011;63008;53.112;8.896;2023-09-08T02:30:12;6.80;;;6.10;;
5125;SDS011;63008;53.112;8.896;2023-09-08T02:32:13;7.43;;;6.47;;
5125;SDS011;63008;53.112;8.896;2023-09-08T02:34:14;7.37;;;6.33;;
5125;SDS011;63008;53.112;8.896;2023-09-08T02:36:15;6.63;;;6.03;;
5125;SDS011;63008;53.112;8.896;2023-09-08T02:38:16;7.00;;;6.30;;
5125;SDS011;63008;53.112;8.896;2023-09-08T02:40:17;8.43;;;5.90;;
5125;SDS011;63008;53.112;8.896;2023-09-08T02:42:19;7.03;;;5.97;;
5125;SDS011;63008;53.112;8.896;2023-09-08T02:44:20;12.17;;;7.50;;
5125;SDS011;63008;53.112;8.896;2023-09-08T02:46:22;12.57;;;6.70;;
5125;SDS011;63008;53.112;8.896;2023-09-08T02:48:24;9.80;;;6.60;;
5125;SDS011;63008;53.112;8.896;2023-09-08T02:50:25;7.77;;;7.00;;
5125;SDS011;63008;53.112;8.896;2023-09-08T02:52:26;8.80;;;6.63;;
5125;SDS011;63008;53.112;8.896;2023-09-08T02:54:27;7.70;;;7.00;;
5125;SDS011;63008;53.112;8.896;2023-09-08T02:56:28;6.60;;;6.00;;
5125;SDS011;63008;53.112;8.896;2023-09-08T02:58:29;6.87;;;6.23;;
5125;SDS011;63008;53.112;8.896;2023-09-08T03:00:31;7.57;;;6.87;;
5125;SDS011;63008;53.112;8.896;2023-09-08T03:02:32;7.53;;;6.70;;
5125;SDS011;63008;53.112;8.896;2023-09-08T03:04:32;13.00;;;7.13;;
5125;SDS011;63008;53.112;8.896;2023-09-08T03:06:34;7.83;;;7.10;;
5125;SDS011;63008;53.112;8.896;2023-09-08T03:08:35;6.83;;;6.23;;
5125;SDS011;63008;53.112;8.896;2023-09-08T03:10:40;7.40;;;6.73;;
5125;SDS011;63008;53.112;8.896;2023-09-08T03:12:41;11.60;;;7.23;;
5125;SDS011;63008;53.112;8.896;2023-09-08T03:14:42;7.47;;;6.77;;
5125;SDS011;63008;53.112;8.896;2023-09-08T03:16:43;11.37;;;7.20;;
5125;SDS011;63008;53.112;8.896;2023-09-08T03:18:44;7.50;;;6.70;;
5125;SDS011;63008;53.112;8.896;2023-09-08T03:20:51;7.73;;;7.03;;
5125;SDS011;63008;53.112;8.896;2023-09-08T03:22:52;7.07;;;6.37;;
5125;SDS011;63008;53.112;8.896;2023-09-08T03:24:53;7.43;;;6.70;;
5125;SDS011;63008;53.112;8.896;2023-09-08T03:26:54;7.40;;;6.80;;
5125;SDS011;63008;53.112;8.896;2023-09-08T03:28:55;7.50;;;6.80;;
5125;SDS011;63008;53.112;8.896;2023-09-08T03:30:56;7.00;;;6.33;;
5125;SDS011;63008;53.112;8.896;2023-09-08T03:32:57;7.03;;;6.33;;
5125;SDS011;63008;53.112;8.896;2023-09-08T03:34:58;7.23;;;6.63;;
5125;SDS011;63008;53.112;8.896;2023-09-08T03:36:59;8.90;;;6.40;;
5125;SDS011;63008;53.112;8.896;2023-09-08T03:39:00;7.77;;;5.87;;
5125;SDS011;63008;53.112;8.896;2023-09-08T03:41:01;8.53;;;6.40;;
5125;SDS011;63008;53.112;8.896;2023-09-08T03:43:02;7.50;;;6.80;;
5125;SDS011;63008;53.112;8.896;2023-09-08T03:45:03;7.47;;;6.70;;
5125;SDS011;63008;53.112;8.896;2023-09-08T03:47:04;6.90;;;6.30;;
5125;SDS011;63008;53.112;8.896;2023-09-08T03:49:05;6.63;;;6.03;;
5125;SDS011;63008;53.112;8.896;2023-09-08T03:51:08;6.83;;;6.13;;
5125;SDS011;63008;53.112;8.896;2023-09-08T03:53:09;7.43;;;6.77;;
5125;SDS011;63008;53.112;8.896;2023-09-08T03:55:11;7.73;;;7.00;;
5125;SDS011;63008;53.112;8.896;2023-09-08T03:57:12;7.90;;;7.10;;
5125;SDS011;63008;53.112;8.896;2023-09-08T03:59:13;8.77;;;7.87;;
5125;SDS011;63008;53.112;8.896;2023-09-08T04:01:14;7.30;;;6.70;;
5125;SDS011;63008;53.112;8.896;2023-09-08T04:03:15;8.03;;;6.77;;
5125;SDS011;63008;53.112;8.896;2023-09-08T04:05:16;8.47;;;7.67;;
5125;SDS011;63008;53.112;8.896;2023-09-08T04:07:18;10.93;;;6.27;;
5125;SDS011;63008;53.112;8.896;2023-09-08T04:09:19;16.57;;;7.30;;
5125;SDS011;63008;53.112;8.896;2023-09-08T04:11:20;7.83;;;7.10;;
5125;SDS011;63008;53.112;8.896;2023-09-08T04:13:21;8.73;;;7.53;;
5125;SDS011;63008;53.112;8.896;2023-09-08T04:15:22;7.33;;;6.57;;
5125;SDS011;63008;53.112;8.896;2023-09-08T04:17:23;7.93;;;7.23;;
5125;SDS011;63008;53.112;8.896;2023-09-08T04:19:24;6.87;;;6.27;;
5125;SDS011;63008;53.112;8.896;2023-09-08T04:21:25;7.77;;;6.97;;
5125;SDS011;63008;53.112;8.896;2023-09-08T04:23:26;15.20;;;7.47;;
5125;SDS011;63008;53.112;8.896;2023-09-08T04:25:27;8.23;;;7.37;;
5125;SDS011;63008;53.112;8.896;2023-09-08T04:27:28;8.23;;;6.77;;
5125;SDS011;63008;53.112;8.896;2023-09-08T04:29:29;13.63;;;6.77;;
5125;SDS011;63008;53.112;8.896;2023-09-08T04:31:29;11.20;;;6.80;;
5125;SDS011;63008;53.112;8.896;2023-09-08T04:33:31;7.50;;;6.73;;
5125;SDS011;63008;53.112;8.896;2023-09-08T04:35:32;7.30;;;6.60;;
5125;SDS011;63008;53.112;8.896;2023-09-08T04:37:33;8.10;;;7.27;;
5125;SDS011;63008;53.112;8.896;2023-09-08T04:39:35;7.30;;;6.60;;
5125;SDS011;63008;53.112;8.896;2023-09-08T04:41:37;7.60;;;6.87;;
5125;SDS011;63008;53.112;8.896;2023-09-08T04:43:38;9.97;;;6.70;;
5125;SDS011;63008;53.112;8.896;2023-09-08T04:45:39;8.00;;;7.20;;
5125;SDS011;63008;53.112;8.896;2023-09-08T04:47:40;17.50;;;6.97;;
5125;SDS011;63008;53.112;8.896;2023-09-08T04:49:41;11.03;;;7.93;;
5125;SDS011;63008;53.112;8.896;2023-09-08T04:51:42;9.00;;;7.30;;
5125;SDS011;63008;53.112;8.896;2023-09-08T04:53:44;13.90;;;8.10;;
5125;SDS011;63008;53.112;8.896;2023-09-08T04:55:45;7.43;;;6.63;;
5125;SDS011;63008;53.112;8.896;2023-09-08T04:57:45;9.73;;;6.80;;
5125;SDS011;63008;53.112;8.896;2023-09-08T04:59:46;11.67;;;8.20;;
5125;SDS011;63008;53.112;8.896;2023-09-08T05:01:47;8.67;;;7.50;;
5125;SDS011;63008;53.112;8.896;2023-09-08T05:03:48;12.50;;;7.40;;
5125;SDS011;63008;53.112;8.896;2023-09-08T05:05:49;7.90;;;7.20;;
5125;SDS011;63008;53.112;8.896;2023-09-08T05:07:50;10.47;;;7.93;;
5125;SDS011;63008;53.112;8.896;2023-09-08T05:09:53;9.10;;;8.13;;
5125;SDS011;63008;53.112;8.896;2023-09-08T05:11:54;8.50;;;7.60;;
5125;SDS011;63008;53.112;8.896;2023-09-08T05:13:55;7.90;;;7.20;;
5125;SDS011;63008;53.112;8.896;2023-09-08T05:15:58;9.00;;;7.17;;
5125;SDS011;63008;53.112;8.896;2023-09-08T05:18:11;7.57;;;6.77;;
5125;SDS011;63008;53.112;8.896;2023-09-08T05:20:12;10.57;;;8.03;;
5125;SDS011;63008;53.112;8.896;2023-09-08T05:22:13;12.33;;;6.93;;
5125;SDS011;63008;53.112;8.896;2023-09-08T05:24:14;8.30;;;6.90;;
5125;SDS011;63008;53.112;8.896;2023-09-08T05:26:15;8.10;;;6.90;;
5125;SDS011;63008;53.112;8.896;2023-09-08T05:28:16;8.80;;;8.00;;
5125;SDS011;63008;53.112;8.896;2023-09-08T05:30:17;11.80;;;7.70;;
5125;SDS011;63008;53.112;8.896;2023-09-08T05:32:18;11.00;;;7.07;;
5125;SDS011;63008;53.112;8.896;2023-09-08T05:34:19;8.43;;;7.47;;
5125;SDS011;63008;53.112;8.896;2023-09-08T05:36:20;8.03;;;7.23;;
5125;SDS011;63008;53.112;8.896;2023-09-08T05:38:21;8.07;;;7.37;;
5125;SDS011;63008;53.112;8.896;2023-09-08T05:40:22;14.80;;;8.10;;
5125;SDS011;63008;53.112;8.896;2023-09-08T05:42:24;8.40;;;7.70;;
5125;SDS011;63008;53.112;8.896;2023-09-08T05:44:25;9.30;;;8.40;;
5125;SDS011;63008;53.112;8.896;2023-09-08T05:46:26;8.00;;;6.80;;
5125;SDS011;63008;53.112;8.896;2023-09-08T05:48:27;9.00;;;7.47;;
5125;SDS011;63008;53.112;8.896;2023-09-08T05:50:28;9.03;;;8.13;;
5125;SDS011;63008;53.112;8.896;2023-09-08T05:52:29;8.67;;;7.87;;
5125;SDS011;63008;53.112;8.896;2023-09-08T05:54:30;8.77;;;7.87;;
5125;SDS011;63008;53.112;8.896;2023-09-08T05:56:33;8.47;;;7.67;;
5125;SDS011;63008;53.112;8.896;2023-09-08T05:58:34;9.47;;;7.53;;
5125;SDS011;63008;53.112;8.896;2023-09-08T06:00:35;8.97;;;8.17;;
5125;SDS011;63008;53.112;8.896;2023-09-08T06:02:36;8.73;;;7.90;;
5125;SDS011;63008;53.112;8.896;2023-09-08T06:04:37;9.40;;;7.13;;
5125;SDS011;63008;53.112;8.896;2023-09-08T06:06:38;8.00;;;7.20;;
5125;SDS011;63008;53.112;8.896;2023-09-08T06:08:39;7.40;;;6.70;;
5125;SDS011;63008;53.112;8.896;2023-09-08T06:10:40;13.00;;;7.30;;
5125;SDS011;63008;53.112;8.896;2023-09-08T06:12:41;9.03;;;7.30;;
5125;SDS011;63008;53.112;8.896;2023-09-08T06:14:42;8.53;;;6.77;;
5125;SDS011;63008;53.112;8.896;2023-09-08T06:16:43;8.63;;;7.73;;
5125;SDS011;63008;53.112;8.896;2023-09-08T06:18:44;9.83;;;7.23;;
5125;SDS011;63008;53.112;8.896;2023-09-08T06:20:45;8.13;;;7.23;;
5125;SDS011;63008;53.112;8.896;2023-09-08T06:22:48;9.20;;;7.10;;
5125;SDS011;63008;53.112;8.896;2023-09-08T06:24:49;10.57;;;7.87;;
5125;SDS011;63008;53.112;8.896;2023-09-08T06:26:50;8.17;;;7.43;;
5125;SDS011;63008;53.112;8.896;2023-09-08T06:28:51;8.57;;;7.70;;
5125;SDS011;63008;53.112;8.896;2023-09-08T06:30:52;11.50;;;7.83;;
5125;SDS011;63008;53.112;8.896;2023-09-08T06:32:54;8.30;;;7.30;;
5125;SDS011;63008;53.112;8.896;2023-09-08T06:34:55;8.37;;;7.50;;
5125;SDS011;63008;53.112;8.896;2023-09-08T06:36:56;10.40;;;7.80;;
5125;SDS011;63008;53.112;8.896;2023-09-08T06:38:57;14.67;;;7.80;;
5125;SDS011;63008;53.112;8.896;2023-09-08T06:40:58;10.60;;;7.37;;
5125;SDS011;63008;53.112;8.896;2023-09-08T06:42:59;8.70;;;7.70;;
5125;SDS011;63008;53.112;8.896;2023-09-08T06:45:00;9.10;;;7.63;;
5125;SDS011;63008;53.112;8.896;2023-09-08T06:47:01;8.57;;;7.50;;
5125;SDS011;63008;53.112;8.896;2023-09-08T06:49:03;9.43;;;7.53;;
5125;SDS011;63008;53.112;8.896;2023-09-08T06:51:04;12.73;;;7.43;;
5125;SDS011;63008;53.112;8.896;2023-09-08T06:53:05;12.90;;;6.70;;
5125;SDS011;63008;53.112;8.896;2023-09-08T06:55:06;11.17;;;7.40;;
5125;SDS011;63008;53.112;8.896;2023-09-08T06:57:07;8.87;;;8.07;;
5125;SDS011;63008;53.112;8.896;2023-09-08T06:59:08;7.63;;;7.00;;
5125;SDS011;63008;53.112;8.896;2023-09-08T07:01:09;10.63;;;8.10;;
5125;SDS011;63008;53.112;8.896;2023-09-08T07:03:10;8.13;;;7.43;;
5125;SDS011;63008;53.112;8.896;2023-09-08T07:05:11;9.87;;;7.67;;
5125;SDS011;63008;53.112;8.896;2023-09-08T07:07:12;9.67;;;7.87;;
5125;SDS011;63008;53.112;8.896;2023-09-08T07:09:13;12.83;;;8.13;;
5125;SDS011;63008;53.112;8.896;2023-09-08T07:11:14;9.70;;;7.77;;
5125;SDS011;63008;53.112;8.896;2023-09-08T07:13:14;9.20;;;7.17;;
5125;SDS011;63008;53.112;8.896;2023-09-08T07:15:15;12.90;;;6.80;;
5125;SDS011;63008;53.112;8.896;2023-09-08T07:17:16;9.30;;;7.77;;
5125;SDS011;63008;53.112;8.896;2023-09-08T07:19:17;8.77;;;7.87;;
5125;SDS011;63008;53.112;8.896;2023-09-08T07:21:19;8.27;;;7.30;;
5125;SDS011;63008;53.112;8.896;2023-09-08T07:23:20;9.43;;;8.10;;
5125;SDS011;63008;53.112;8.896;2023-09-08T07:25:21;9.00;;;7.60;;
5125;SDS011;63008;53.112;8.896;2023-09-08T07:27:22;8.43;;;6.60;;
5125;SDS011;63008;53.112;8.896;2023-09-08T07:29:23;18.10;;;8.40;;
5125;SDS011;63008;53.112;8.896;2023-09-08T07:31:24;9.57;;;7.57;;
5125;SDS011;63008;53.112;8.896;2023-09-08T07:33:25;9.57;;;6.40;;
5125;SDS011;63008;53.112;8.896;2023-09-08T07:35:26;8.77;;;7.70;;
5125;SDS011;63008;53.112;8.896;2023-09-08T07:37:27;8.50;;;7.47;;
5125;SDS011;63008;53.112;8.896;2023-09-08T07:39:28;7.50;;;6.80;;
5125;SDS011;63008;53.112;8.896;2023-09-08T07:41:29;9.33;;;7.00;;
5125;SDS011;63008;53.112;8.896;2023-09-08T07:43:29;7.80;;;7.00;;
5125;SDS011;63008;53.112;8.896;2023-09-08T07:45:30;7.77;;;6.97;;
5125;SDS011;63008;53.112;8.896;2023-09-08T07:47:31;9.90;;;6.90;;
5125;SDS011;63008;53.112;8.896;2023-09-08T07:49:33;12.97;;;7.00;;
5125;SDS011;63008;53.112;8.896;2023-09-08T07:51:34;8.13;;;7.17;;
5125;SDS011;63008;53.112;8.896;2023-09-08T07:53:35;10.30;;;6.40;;
5125;SDS011;63008;53.112;8.896;2023-09-08T07:55:36;8.80;;;6.23;;
5125;SDS011;63008;53.112;8.896;2023-09-08T07:57:38;10.27;;;6.63;;
5125;SDS011;63008;53.112;8.896;2023-09-08T07:59:39;7.50;;;6.60;;
5125;SDS011;63008;53.112;8.896;2023-09-08T08:01:40;8.67;;;6.17;;
5125;SDS011;63008;53.112;8.896;2023-09-08T08:03:41;7.00;;;6.10;;
5125;SDS011;63008;53.112;8.896;2023-09-08T08:05:42;6.03;;;5.53;;
5125;SDS011;63008;53.112;8.896;2023-09-08T08:07:43;8.57;;;6.43;;
5125;SDS011;63008;53.112;8.896;2023-09-08T08:09:45;6.13;;;5.63;;
5125;SDS011;63008;53.112;8.896;2023-09-08T08:11:45;12.80;;;5.90;;
5125;SDS011;63008;53.112;8.896;2023-09-08T08:13:46;7.00;;;6.00;;
5125;SDS011;63008;53.112;8.896;2023-09-08T08:15:47;11.27;;;5.43;;
5125;SDS011;63008;53.112;8.896;2023-09-08T08:17:48;8.37;;;5.33;;
5125;SDS011;63008;53.112;8.896;2023-09-08T08:19:50;8.20;;;6.20;;
5125;SDS011;63008;53.112;8.896;2023-09-08T08:21:51;9.43;;;6.00;;
5125;SDS011;63008;53.112;8.896;2023-09-08T08:23:52;6.50;;;5.23;;
5125;SDS011;63008;53.112;8.896;2023-09-08T08:25:53;8.83;;;5.50;;
5125;SDS011;63008;53.112;8.896;2023-09-08T08:27:54;6.37;;;5.77;;
5125;SDS011;63008;53.112;8.896;2023-09-08T08:29:55;7.43;;;5.63;;
5125;SDS011;63008;53.112;8.896;2023-09-08T08:31:58;6.90;;;6.00;;
5125;SDS011;63008;53.112;8.896;2023-09-08T08:33:59;8.33;;;6.20;;
5125;SDS011;63008;53.112;8.896;2023-09-08T08:36:00;5.90;;;5.23;;
5125;SDS011;63008;53.112;8.896;2023-09-08T08:38:01;8.77;;;6.53;;
5125;SDS011;63008;53.112;8.896;2023-09-08T08:40:02;5.23;;;4.73;;
5125;SDS011;63008;53.112;8.896;2023-09-08T08:42:07;14.23;;;5.90;;
5125;SDS011;63008;53.112;8.896;2023-09-08T08:44:09;5.47;;;4.97;;
5125;SDS011;63008;53.112;8.896;2023-09-08T08:46:10;7.37;;;6.67;;
5125;SDS011;63008;53.112;8.896;2023-09-08T08:48:13;9.03;;;5.63;;
5125;SDS011;63008;53.112;8.896;2023-09-08T08:50:16;7.30;;;5.33;;
5125;SDS011;63008;53.112;8.896;2023-09-08T08:52:18;8.10;;;5.50;;
5125;SDS011;63008;53.112;8.896;2023-09-08T08:54:19;6.07;;;5.10;;
5125;SDS011;63008;53.112;8.896;2023-09-08T08:56:21;7.43;;;5.30;;
5125;SDS011;63008;53.112;8.896;2023-09-08T08:58:23;6.00;;;5.37;;
5125;SDS011;63008;53.112;8.896;2023-09-08T09:00:27;9.43;;;5.20;;
5125;SDS011;63008;53.112;8.896;2023-09-08T09:02:28;7.00;;;5.03;;
5125;SDS011;63008;53.112;8.896;2023-09-08T09:04:29;6.13;;;5.53;;
5125;SDS011;63008;53.112;8.896;2023-09-08T09:06:31;7.43;;;5.40;;
5125;SDS011;63008;53.112;8.896;2023-09-08T09:08:33;6.40;;;5.70;;
5125;SDS011;63008;53.112;8.896;2023-09-08T09:10:34;6.63;;;4.60;;
5125;SDS011;63008;53.112;8.896;2023-09-08T09:12:36;5.23;;;4.70;;
5125;SDS011;63008;53.112;8.896;2023-09-08T09:14:38;5.00;;;4.57;;
5125;SDS011;63008;53.112;8.896;2023-09-08T09:16:46;9.07;;;5.67;;
5125;SDS011;63008;53.112;8.896;2023-09-08T09:18:54;5.80;;;4.93;;
5125;SDS011;63008;53.112;8.896;2023-09-08T09:20:59;8.33;;;4.90;;
5125;SDS011;63008;53.112;8.896;2023-09-08T09:23:01;6.90;;;5.07;;
5125;SDS011;63008;53.112;8.896;2023-09-08T09:25:02;4.93;;;4.30;;
5125;SDS011;63008;53.112;8.896;2023-09-08T09:27:06;5.17;;;4.60;;
5125;SDS011;63008;53.112;8.896;2023-09-08T09:29:13;5.10;;;4.70;;
5125;SDS011;63008;53.112;8.896;2023-09-08T09:31:15;8.90;;;4.77;;
5125;SDS011;63008;53.112;8.896;2023-09-08T09:33:15;8.57;;;4.43;;
5125;SDS011;63008;53.112;8.896;2023-09-08T09:35:17;5.87;;;5.07;;
5125;SDS011;63008;53.112;8.896;2023-09-08T09:37:19;5.47;;;5.07;;
5125;SDS011;63008;53.112;8.896;2023-09-08T09:39:21;7.30;;;4.87;;
5125;SDS011;63008;53.112;8.896;2023-09-08T09:41:24;6.60;;;4.00;;
5125;SDS011;63008;53.112;8.896;2023-09-08T09:43:25;4.33;;;3.90;;
5125;SDS011;63008;53.112;8.896;2023-09-08T09:45:28;6.33;;;5.00;;
5125;SDS011;63008;53.112;8.896;2023-09-08T09:47:29;7.97;;;4.47;;
5125;SDS011;63008;53.112;8.896;2023-09-08T09:49:31;5.90;;;5.07;;
5125;SDS011;63008;53.112;8.896;2023-09-08T09:51:32;5.30;;;4.80;;
5125;SDS011;63008;53.112;8.896;2023-09-08T09:53:41;5.37;;;4.93;;
5125;SDS011;63008;53.112;8.896;2023-09-08T09:55:43;9.63;;;4.27;;
5125;SDS011;63008;53.112;8.896;2023-09-08T09:57:46;7.03;;;4.23;;
5125;SDS011;63008;53.112;8.896;2023-09-08T09:59:48;9.60;;;4.57;;
5125;SDS011;63008;53.112;8.896;2023-09-08T10:01:51;4.93;;;4.50;;
5125;SDS011;63008;53.112;8.896;2023-09-08T10:03:53;6.17;;;5.50;;
5125;SDS011;63008;53.112;8.896;2023-09-08T10:05:55;5.07;;;4.67;;
5125;SDS011;63008;53.112;8.896;2023-09-08T10:07:56;4.77;;;4.40;;
5125;SDS011;63008;53.112;8.896;2023-09-08T10:09:58;4.87;;;4.47;;
5125;SDS011;63008;53.112;8.896;2023-09-08T10:12:01;5.23;;;4.83;;
5125;SDS011;63008;53.112;8.896;2023-09-08T10:14:04;4.53;;;4.10;;
5125;SDS011;63008;53.112;8.896;2023-09-08T10:16:08;4.53;;;4.20;;
5125;SDS011;63008;53.112;8.896;2023-09-08T10:18:16;8.73;;;4.60;;
5125;SDS011;63008;53.112;8.896;2023-09-08T10:20:23;5.03;;;4.53;;
5125;SDS011;63008;53.112;8.896;2023-09-08T10:22:26;6.23;;;4.90;;
5125;SDS011;63008;53.112;8.896;2023-09-08T10:24:32;6.10;;;4.40;;
5125;SDS011;63008;53.112;8.896;2023-09-08T10:26:34;9.40;;;4.60;;
5125;SDS011;63008;53.112;8.896;2023-09-08T10:28:40;6.83;;;4.33;;
5125;SDS011;63008;53.112;8.896;2023-09-08T10:30:41;5.00;;;4.60;;
5125;SDS011;63008;53.112;8.896;2023-09-08T10:32:43;5.73;;;4.60;;
5125;SDS011;63008;53.112;8.896;2023-09-08T10:34:45;4.77;;;3.90;;
5125;SDS011;63008;53.112;8.896;2023-09-08T10:36:48;10.60;;;5.03;;
5125;SDS011;63008;53.112;8.896;2023-09-08T10:38:49;4.70;;;4.10;;
5125;SDS011;63008;53.112;8.896;2023-09-08T10:40:53;8.33;;;4.87;;
5125;SDS011;63008;53.112;8.896;2023-09-08T10:43:07;4.50;;;4.10;;
5125;SDS011;63008;53.112;8.896;2023-09-08T10:45:14;4.97;;;4.43;;
5125;SDS011;63008;53.112;8.896;2023-09-08T10:47:19;4.83;;;4.30;;
5125;SDS011;63008;53.112;8.896;2023-09-08T10:49:24;4.27;;;3.97;;
5125;SDS011;63008;53.112;8.896;2023-09-08T10:51:25;7.43;;;4.23;;
5125;SDS011;63008;53.112;8.896;2023-09-08T10:53:26;7.97;;;4.17;;
5125;SDS011;63008;53.112;8.896;2023-09-08T10:55:34;4.40;;;4.00;;
5125;SDS011;63008;53.112;8.896;2023-09-08T10:57:37;5.10;;;4.70;;
5125;SDS011;63008;53.112;8.896;2023-09-08T10:59:38;5.60;;;4.40;;
5125;SDS011;63008;53.112;8.896;2023-09-08T11:01:39;8.83;;;4.50;;
5125;SDS011;63008;53.112;8.896;2023-09-08T11:05:42;10.97;;;4.33;;
5125;SDS011;63008;53.112;8.896;2023-09-08T11:07:44;4.93;;;4.43;;
5125;SDS011;63008;53.112;8.896;2023-09-08T11:09:45;5.87;;;4.80;;
5125;SDS011;63008;53.112;8.896;2023-09-08T11:11:46;5.03;;;4.50;;
5125;SDS011;63008;53.112;8.896;2023-09-08T11:13:47;14.03;;;4.80;;
5125;SDS011;63008;53.112;8.896;2023-09-08T11:15:51;6.50;;;4.00;;
5125;SDS011;63008;53.112;8.896;2023-09-08T11:17:55;8.20;;;4.50;;
5125;SDS011;63008;53.112;8.896;2023-09-08T11:19:56;6.30;;;4.43;;
5125;SDS011;63008;53.112;8.896;2023-09-08T11:21:57;6.00;;;4.47;;
5125;SDS011;63008;53.112;8.896;2023-09-08T11:23:59;4.20;;;3.80;;
5125;SDS011;63008;53.112;8.896;2023-09-08T11:26:00;4.63;;;3.97;;
5125;SDS011;63008;53.112;8.896;2023-09-08T11:28:01;5.33;;;3.83;;
5125;SDS011;63008;53.112;8.896;2023-09-08T11:30:02;7.57;;;4.30;;
5125;SDS011;63008;53.112;8.896;2023-09-08T11:32:08;8.50;;;4.90;;
5125;SDS011;63008;53.112;8.896;2023-09-08T11:34:11;4.83;;;4.43;;
5125;SDS011;63008;53.112;8.896;2023-09-08T11:36:14;7.50;;;4.27;;
5125;SDS011;63008;53.112;8.896;2023-09-08T11:38:15;10.50;;;4.40;;
5125;SDS011;63008;53.112;8.896;2023-09-08T11:40:16;4.27;;;3.70;;
5125;SDS011;63008;53.112;8.896;2023-09-08T11:42:20;6.23;;;4.70;;
5125;SDS011;63008;53.112;8.896;2023-09-08T11:44:21;4.53;;;4.13;;
5125;SDS011;63008;53.112;8.896;2023-09-08T11:46:22;4.10;;;3.90;;
5125;SDS011;63008;53.112;8.896;2023-09-08T11:48:26;7.37;;;4.40;;
5125;SDS011;63008;53.112;8.896;2023-09-08T11:50:27;4.23;;;3.83;;
5125;SDS011;63008;53.112;8.896;2023-09-08T11:52:30;7.13;;;4.37;;
5125;SDS011;63008;53.112;8.896;2023-09-08T11:54:31;5.00;;;4.50;;
5125;SDS011;63008;53.112;8.896;2023-09-08T11:56:33;4.07;;;3.83;;
5125;SDS011;63008;53.112;8.896;2023-09-08T11:58:34;4.50;;;4.10;;
5125;SDS011;63008;53.112;8.896;2023-09-08T12:00:36;4.60;;;4.13;;
5125;SDS011;63008;53.112;8.896;2023-09-08T12:02:38;4.27;;;3.80;;
5125;SDS011;63008;53.112;8.896;2023-09-08T12:04:39;3.83;;;3.63;;
5125;SDS011;63008;53.112;8.896;2023-09-08T12:06:41;5.50;;;4.40;;
5125;SDS011;63008;53.112;8.896;2023-09-08T12:08:42;10.10;;;4.70;;
5125;SDS011;63008;53.112;8.896;2023-09-08T12:10:45;4.37;;;3.97;;
5125;SDS011;63008;53.112;8.896;2023-09-08T12:12:47;7.70;;;3.87;;
5125;SDS011;63008;53.112;8.896;2023-09-08T12:14:49;6.80;;;3.90;;
5125;SDS011;63008;53.112;8.896;2023-09-08T12:16:54;8.37;;;4.63;;
5125;SDS011;63008;53.112;8.896;2023-09-08T12:19:28;7.50;;;3.80;;
5125;SDS011;63008;53.112;8.896;2023-09-08T12:23:55;5.80;;;4.10;;
5125;SDS011;63008;53.112;8.896;2023-09-08T12:25:56;5.43;;;3.93;;
5125;SDS011;63008;53.112;8.896;2023-09-08T12:27:58;4.10;;;3.83;;
5125;SDS011;63008;53.112;8.896;2023-09-08T12:30:00;8.20;;;4.20;;